Time;durP1;ratioP1;P1;durP2;ratioP2;P2;SDS_P1;SDS_P2;PMS_P1;PMS_P2;Temp;Humidity;BMP_temperature;BMP_pressure;BME280_temperature;BME280_humidity;BME280_pressure;Samples;Min_cycle;Max_cycle;Signal;HPM_P1;HPM_P2
2022/09/30 00:00:02;;;;;;;6.55;4.60;;;;;;;7.48;73.19;99482.91;5076387;28;20486;-51
2022/09/30 00:02:29;;;;;;;5.80;4.32;;;;;;;7.46;72.51;99479.63;5073983;28;20056;-52
2022/09/30 00:04:57;;;;;;;6.68;4.28;;;;;;;7.45;72.03;99492.63;5073754;28;20493;-51
2022/09/30 00:07:24;;;;;;;5.75;4.30;;;;;;;7.38;71.64;99489.50;5074189;28;20052;-51
2022/09/30 00:09:53;;;;;;;7.03;4.43;;;;;;;7.40;71.51;99489.19;5072747;28;20052;-50
2022/09/30 00:12:20;;;;;;;4.70;3.95;;;;;;;7.37;72.57;99482.34;5073850;28;20398;-50
2022/09/30 00:14:47;;;;;;;6.13;4.15;;;;;;;7.35;71.61;99483.78;5073393;28;20059;-50
2022/09/30 00:17:14;;;;;;;6.10;4.38;;;;;;;7.34;71.99;99493.25;5073629;28;20052;-50
2022/09/30 00:19:41;;;;;;;5.55;4.22;;;;;;;7.32;71.42;99493.56;5073792;28;20061;-51
2022/09/30 00:22:11;;;;;;;5.32;3.90;;;;;;;7.29;71.30;99500.53;5073870;28;20064;-51
2022/09/30 00:24:39;;;;;;;4.85;3.70;;;;;;;7.23;71.63;99498.22;5089081;28;20060;-50
2022/09/30 00:27:07;;;;;;;5.18;3.78;;;;;;;7.17;72.65;99505.03;5093120;28;20052;-50
2022/09/30 00:29:35;;;;;;;6.07;4.28;;;;;;;7.15;72.65;99505.34;5093527;28;20052;-53
2022/09/30 00:32:05;;;;;;;6.80;4.30;;;;;;;7.16;72.10;99509.75;5093638;28;20516;-53
2022/09/30 00:34:32;;;;;;;6.30;4.50;;;;;;;7.16;72.32;99509.75;5093660;28;20063;-53
2022/09/30 00:37:01;;;;;;;7.05;4.72;;;;;;;7.12;71.60;99511.53;5090729;28;20052;-53
2022/09/30 00:39:30;;;;;;;6.95;5.03;;;;;;;7.09;72.48;99510.16;5073522;28;20489;-50
2022/09/30 00:42:02;;;;;;;6.63;4.85;;;;;;;7.07;71.75;99508.84;5072362;28;20052;-51
2022/09/30 00:45:03;;;;;;;7.43;4.57;;;;;;;7.05;71.94;99505.59;5073514;28;20060;-53
2022/09/30 00:47:53;;;;;;;5.93;4.65;;;;;;;7.03;72.37;99511.44;5072611;28;20052;-54
2022/09/30 00:50:33;;;;;;;8.35;4.43;;;;;;;7.04;72.39;99504.78;5073020;28;20507;-54
2022/09/30 00:53:07;;;;;;;7.43;4.43;;;;;;;7.06;71.77;99516.34;5101044;28;20066;-51
2022/09/30 00:55:44;;;;;;;5.05;4.03;;;;;;;7.05;71.14;99500.84;5113540;28;20047;-51
2022/09/30 00:58:17;;;;;;;4.57;3.92;;;;;;;7.00;71.43;99505.72;5110908;28;20056;-53
2022/09/30 01:00:47;;;;;;;5.90;4.75;;;;;;;6.95;72.09;99511.38;5097865;28;20059;-54
2022/09/30 01:03:14;;;;;;;;;;;;;;;6.90;72.33;99509.53;5093239;28;20056;-51
2022/09/30 01:05:42;;;;;;;5.57;4.30;;;;;;;6.88;72.45;99507.09;5092858;28;20267;-53
2022/09/30 01:08:11;;;;;;;6.40;4.55;;;;;;;6.91;71.74;99509.25;5097955;28;20051;-53
2022/09/30 01:10:38;;;;;;;6.35;4.07;;;;;;;6.90;71.33;99510.34;5112459;28;20059;-51
2022/09/30 01:13:06;;;;;;;5.82;4.30;;;;;;;6.87;71.58;99505.47;5113105;28;20066;-50
2022/09/30 01:15:47;;;;;;;5.97;4.32;;;;;;;6.85;71.90;99507.72;5113184;28;20063;-50
2022/09/30 01:18:26;;;;;;;5.90;4.80;;;;;;;6.82;72.35;99508.34;5113142;28;20514;-50
2022/09/30 01:21:20;;;;;;;5.82;4.60;;;;;;;6.81;72.01;99505.91;5112938;28;20415;-50
2022/09/30 01:24:08;;;;;;;5.70;4.82;;;;;;;6.83;72.28;99509.19;5111439;28;20063;-53
2022/09/30 01:26:53;;;;;;;5.97;4.75;;;;;;;6.78;72.04;99506.50;5113054;28;20374;-50
2022/09/30 01:30:04;;;;;;;5.68;4.50;;;;;;;6.78;72.62;99509.28;5112943;28;20059;-51
2022/09/30 01:32:49;;;;;;;6.10;4.50;;;;;;;6.75;72.68;99518.22;5104625;28;20052;-50
2022/09/30 01:35:25;;;;;;;6.30;4.55;;;;;;;6.74;72.47;99511.88;5112879;28;20403;-52
2022/09/30 01:38:02;;;;;;;5.38;4.43;;;;;;;6.73;72.58;99520.47;5109026;28;20071;-51
2022/09/30 01:40:40;;;;;;;5.22;4.22;;;;;;;6.66;72.08;99516.19;5092457;28;20067;-52
2022/09/30 01:43:12;;;;;;;6.43;5.18;;;;;;;6.67;72.30;99515.06;5092558;28;20067;-51
2022/09/30 01:45:44;;;;;;;12.43;5.10;;;;;;;6.68;72.28;99522.25;5092434;28;20409;-51
2022/09/30 01:48:20;;;;;;;6.40;4.70;;;;;;;6.67;72.17;99528.06;5091699;28;20066;-51
2022/09/30 01:50:55;;;;;;;6.95;5.03;;;;;;;6.63;72.72;99527.06;5092462;28;20485;-50
2022/09/30 01:53:30;;;;;;;6.90;4.45;;;;;;;6.64;71.79;99528.72;5090347;28;20059;-50
2022/09/30 01:56:03;;;;;;;5.85;4.47;;;;;;;6.59;72.21;99529.63;5090736;28;20064;-51
2022/09/30 01:58:43;;;;;;;6.15;4.50;;;;;;;6.55;72.31;99527.78;5085180;28;20059;-50
2022/09/30 02:01:17;;;;;;;5.47;4.13;;;;;;;6.49;71.74;99529.88;5072014;28;20068;-52
2022/09/30 02:03:51;;;;;;;5.97;4.10;;;;;;;6.47;72.25;99534.91;5088397;28;20396;-50
2022/09/30 02:06:21;;;;;;;5.80;3.97;;;;;;;6.47;72.07;99530.19;5091090;28;20052;-54
2022/09/30 02:08:57;;;;;;;6.45;4.43;;;;;;;6.47;72.11;99530.19;5084537;28;20052;-53
2022/09/30 02:11:27;;;;;;;5.80;4.65;;;;;;;6.43;71.98;99529.16;5095360;28;20067;-51
2022/09/30 02:14:01;;;;;;;5.28;3.97;;;;;;;6.40;71.78;99528.94;5095947;28;20063;-49
2022/09/30 02:16:38;;;;;;;5.75;4.70;;;;;;;6.33;72.48;99536.88;5096668;28;20059;-51
2022/09/30 02:19:14;;;;;;;4.88;4.28;;;;;;;6.32;72.43;99536.06;5095898;28;20055;-51
2022/09/30 02:21:45;;;;;;;6.80;4.45;;;;;;;6.36;72.15;99534.28;5096375;28;20426;-50
2022/09/30 02:24:16;;;;;;;6.72;4.93;;;;;;;6.34;72.68;99535.72;5093399;28;20063;-53
2022/09/30 02:26:47;;;;;;;7.00;4.70;;;;;;;6.30;72.36;99530.00;5096126;28;20404;-52
2022/09/30 02:29:22;;;;;;;6.50;4.60;;;;;;;6.28;72.53;99538.59;5095765;28;20424;-53
2022/09/30 02:31:56;;;;;;;5.85;4.93;;;;;;;6.29;72.88;99536.66;5095877;28;20469;-55
2022/09/30 02:34:28;;;;;;;6.03;4.18;;;;;;;6.31;72.32;99542.69;5095412;28;20067;-53
2022/09/30 02:37:01;;;;;;;4.65;3.92;;;;;;;6.27;72.61;99538.91;5091301;28;20057;-53
2022/09/30 02:39:39;;;;;;;4.38;3.90;;;;;;;6.27;71.81;99536.94;5075744;28;20061;-54
2022/09/30 02:42:14;;;;;;;4.95;3.90;;;;;;;6.22;72.14;99537.06;5074858;28;20060;-53
2022/09/30 02:44:41;;;;;;;6.07;4.22;;;;;;;6.24;71.81;99531.25;5075604;28;20075;-54
2022/09/30 02:47:15;;;;;;;5.65;4.30;;;;;;;6.22;72.35;99522.44;5075130;28;20401;-50
2022/09/30 02:49:48;;;;;;;5.80;4.55;;;;;;;6.19;72.29;99520.28;5075023;28;20064;-53
2022/09/30 02:52:27;;;;;;;7.70;4.60;;;;;;;6.15;72.25;99525.59;5078846;28;20388;-53
2022/09/30 02:55:10;;;;;;;5.50;4.30;;;;;;;6.16;71.83;99523.66;5095124;28;20520;-52
2022/09/30 02:57:45;;;;;;;5.70;4.22;;;;;;;6.12;72.13;99522.66;5097670;28;20403;-54
2022/09/30 03:00:15;;;;;;;7.20;4.53;;;;;;;6.05;72.38;99540.47;5100809;28;20393;-54
2022/09/30 03:02:42;;;;;;;6.88;4.65;;;;;;;6.05;72.44;99536.88;5094942;28;20443;-52
2022/09/30 03:05:11;;;;;;;5.93;4.40;;;;;;;6.09;72.47;99530.44;5095068;28;20500;-53
2022/09/30 03:07:40;;;;;;;5.90;4.55;;;;;;;6.06;72.41;99539.31;5113853;28;20062;-50
2022/09/30 03:10:13;;;;;;;6.63;4.13;;;;;;;6.11;72.57;99546.72;5115249;28;20058;-53
2022/09/30 03:12:59;;;;;;;5.03;4.50;;;;;;;6.09;72.03;99544.25;5115395;28;20393;-50
2022/09/30 03:15:41;;;;;;;5.43;3.80;;;;;;;6.08;72.13;99545.34;5109176;28;20401;-54
2022/09/30 03:18:29;;;;;;;6.63;3.67;;;;;;;6.08;72.03;99556.41;5094195;28;20048;-52
2022/09/30 03:21:08;;;;;;;6.15;4.22;;;;;;;6.03;71.90;99545.47;5099581;28;20055;-52
2022/09/30 03:24:00;;;;;;;5.65;3.80;;;;;;;6.02;72.10;99551.31;5100366;28;20412;-53
2022/09/30 03:26:38;;;;;;;5.40;4.20;;;;;;;6.02;71.92;99556.84;5094768;28;20063;-51
2022/09/30 03:29:15;;;;;;;6.15;4.18;;;;;;;5.96;71.97;99553.34;5094567;28;20082;-51
2022/09/30 03:31:54;;;;;;;5.47;4.43;;;;;;;5.92;72.33;99557.81;5094647;28;20056;-51
2022/09/30 03:34:28;;;;;;;6.75;4.57;;;;;;;5.90;71.98;99557.31;5093633;28;21264;-53
2022/09/30 03:37:07;;;;;;;7.75;5.47;;;;;;;5.84;72.45;99566.84;5094087;28;20416;-51
2022/09/30 03:39:48;;;;;;;6.00;5.03;;;;;;;5.83;72.19;99568.75;5094502;28;20056;-52
2022/09/30 03:42:21;;;;;;;8.70;5.13;;;;;;;5.85;71.93;99574.00;5094165;28;20079;-52
2022/09/30 03:44:57;;;;;;;5.97;4.28;;;;;;;5.85;72.18;99568.47;5094366;28;20060;-50
2022/09/30 03:47:28;;;;;;;5.15;4.60;;;;;;;5.83;72.48;99565.19;5094269;28;20400;-50
2022/09/30 03:50:00;;;;;;;9.73;5.30;;;;;;;5.86;72.55;99564.59;5101708;28;20047;-53
2022/09/30 03:52:31;;;;;;;5.70;4.53;;;;;;;5.83;72.27;99570.72;5114388;28;20062;-49
2022/09/30 03:55:01;;;;;;;5.43;4.18;;;;;;;5.82;72.07;99563.56;5114406;28;20051;-50
2022/09/30 03:57:29;;;;;;;6.40;4.43;;;;;;;5.81;71.95;99572.97;5113166;28;20404;-51
2022/09/30 03:59:57;;;;;;;7.10;4.50;;;;;;;5.80;72.40;99565.81;5113932;28;20060;-54
2022/09/30 04:02:25;;;;;;;5.90;5.10;;;;;;;5.79;72.55;99578.78;5114446;28;20059;-51
2022/09/30 04:04:52;;;;;;;6.50;4.35;;;;;;;5.76;72.02;99570.31;5096282;28;20056;-51
2022/09/30 04:07:20;;;;;;;6.35;4.90;;;;;;;5.77;72.32;99574.69;5093330;28;20052;-51
2022/09/30 04:09:48;;;;;;;5.40;4.57;;;;;;;5.75;71.99;99579.69;5093672;28;20056;-50
2022/09/30 04:12:15;;;;;;;6.60;4.90;;;;;;;5.70;72.31;99583.38;5093770;28;20385;-52
2022/09/30 04:14:43;;;;;;;6.18;4.35;;;;;;;5.68;72.34;99586.44;5093433;28;20519;-51
2022/09/30 04:17:10;;;;;;;6.03;4.47;;;;;;;5.64;72.90;99585.41;5100476;28;20064;-51
2022/09/30 04:19:39;;;;;;;7.13;4.95;;;;;;;5.60;71.61;99587.13;5108478;28;20066;-50
2022/09/30 04:22:06;;;;;;;6.47;4.50;;;;;;;5.64;71.74;99593.69;5114047;28;20407;-53
2022/09/30 04:24:34;;;;;;;7.93;4.68;;;;;;;5.62;71.49;99595.13;5114408;28;20507;-50
2022/09/30 04:27:03;;;;;;;5.18;4.10;;;;;;;5.59;72.17;99612.31;5114038;28;20059;-50
2022/09/30 04:29:30;;;;;;;7.38;4.82;;;;;;;5.57;72.01;99611.81;5112912;28;20058;-50
2022/09/30 04:31:58;;;;;;;6.85;5.22;;;;;;;5.55;71.71;99616.81;5096469;28;20064;-52
2022/09/30 04:34:25;;;;;;;7.13;4.72;;;;;;;5.54;71.71;99624.25;5092841;28;20067;-50
2022/09/30 04:36:52;;;;;;;6.35;4.68;;;;;;;5.57;71.80;99623.66;5093699;28;20052;-51
2022/09/30 04:39:19;;;;;;;5.43;4.45;;;;;;;5.56;71.52;99630.28;5092983;28;20054;-52
2022/09/30 04:41:47;;;;;;;5.80;4.22;;;;;;;5.54;71.53;99624.25;5092914;28;20055;-52
2022/09/30 04:44:15;;;;;;;5.32;4.25;;;;;;;5.46;71.18;99633.25;5092903;28;20052;-50
2022/09/30 04:46:43;;;;;;;6.03;5.10;;;;;;;5.45;71.69;99634.34;5093744;28;20056;-50
2022/09/30 04:49:10;;;;;;;5.40;4.00;;;;;;;5.38;71.88;99637.50;5113018;28;20056;-52
2022/09/30 04:51:42;;;;;;;8.13;4.50;;;;;;;5.37;72.05;99643.31;5108262;28;20059;-51
2022/09/30 04:54:09;;;;;;;6.18;4.60;;;;;;;5.34;71.91;99639.22;5102762;28;20385;-50
2022/09/30 04:56:37;;;;;;;6.53;4.85;;;;;;;5.35;72.17;99643.59;5109083;28;20056;-49
2022/09/30 04:59:04;;;;;;;7.25;5.22;;;;;;;5.27;72.54;99647.88;5107867;28;20051;-50
2022/09/30 05:01:33;;;;;;;7.55;4.90;;;;;;;5.30;72.58;99649.22;5107746;28;20051;-54
2022/09/30 05:04:00;;;;;;;8.20;5.43;;;;;;;5.27;72.57;99658.94;5113158;28;20066;-50
2022/09/30 05:06:27;;;;;;;7.32;5.95;;;;;;;5.27;72.61;99649.81;5095488;28;20060;-51
2022/09/30 05:08:55;;;;;;;10.73;5.40;;;;;;;5.28;72.36;99654.22;5092848;28;20055;-51
2022/09/30 05:11:22;;;;;;;7.53;4.97;;;;;;;5.33;72.79;99658.84;5092714;28;20063;-52
2022/09/30 05:13:50;;;;;;;7.45;5.47;;;;;;;5.33;72.79;99656.09;5092534;28;20052;-50
2022/09/30 05:16:18;;;;;;;7.75;5.78;;;;;;;5.31;72.55;99658.31;5100944;28;20063;-54
2022/09/30 05:18:47;;;;;;;6.68;4.70;;;;;;;5.36;72.53;99656.31;5106292;28;20051;-50
2022/09/30 05:21:16;;;;;;;5.72;4.85;;;;;;;5.38;72.45;99654.06;5093515;28;20079;-49
2022/09/30 05:23:43;;;;;;;5.60;4.73;;;;;;;5.39;72.63;99658.47;5105789;28;20415;-51
2022/09/30 05:26:10;;;;;;;6.70;5.05;;;;;;;5.38;72.46;99656.03;5092317;28;20052;-54
2022/09/30 05:28:37;;;;;;;7.75;5.50;;;;;;;5.38;72.78;99656.03;5099745;28;20492;-53
2022/09/30 05:31:05;;;;;;;7.30;4.82;;;;;;;5.40;72.51;99651.03;5092102;28;20059;-54
2022/09/30 05:33:34;;;;;;;5.88;4.82;;;;;;;5.43;72.30;99655.94;5105790;28;20059;-53
2022/09/30 05:36:05;;;;;;;5.82;4.65;;;;;;;5.43;72.22;99656.75;5112565;28;20499;-53
2022/09/30 05:38:33;;;;;;;9.32;5.28;;;;;;;5.40;72.27;99667.59;5096415;28;20075;-51
2022/09/30 05:41:07;;;;;;;7.20;5.22;;;;;;;5.38;72.32;99659.59;5092236;28;20055;-53
2022/09/30 05:43:34;;;;;;;7.10;5.68;;;;;;;5.39;72.40;99665.94;5107080;28;20060;-53
2022/09/30 05:46:02;;;;;;;6.95;4.95;;;;;;;5.40;72.50;99671.16;5098747;28;20055;-52
2022/09/30 05:48:29;;;;;;;6.18;4.50;;;;;;;5.44;72.17;99672.22;5110280;28;20054;-55
2022/09/30 05:50:57;;;;;;;9.55;5.38;;;;;;;5.47;71.91;99673.53;5110493;28;20435;-53
2022/09/30 05:53:25;;;;;;;7.05;5.00;;;;;;;5.48;72.30;99691.75;5111955;28;20056;-54
2022/09/30 05:55:53;;;;;;;7.85;4.95;;;;;;;5.49;72.44;99685.09;5112251;28;20404;-53
2022/09/30 05:58:21;;;;;;;7.28;5.32;;;;;;;5.52;72.14;99681.72;5111994;28;20056;-54
2022/09/30 06:00:49;;;;;;;5.95;4.60;;;;;;;5.56;71.75;99682.78;5100605;28;20048;-53
2022/09/30 06:03:17;;;;;;;5.00;3.88;;;;;;;5.64;71.81;99673.81;5099096;28;20451;-51
2022/09/30 06:05:45;;;;;;;7.35;5.20;;;;;;;5.68;71.63;99683.13;5112491;28;20055;-51
2022/09/30 06:08:13;;;;;;;10.80;5.70;;;;;;;5.72;71.67;99685.31;5107024;28;20056;-53
2022/09/30 06:10:43;;;;;;;6.05;5.05;;;;;;;5.78;71.54;99689.63;5112247;28;20055;-51
2022/09/30 06:13:11;;;;;;;8.23;6.32;;;;;;;5.77;71.82;99699.03;5097991;28;20052;-55
2022/09/30 06:15:38;;;;;;;6.95;4.85;;;;;;;5.97;71.47;99704.25;5107807;28;20059;-50
2022/09/30 06:18:06;;;;;;;6.32;5.63;;;;;;;6.25;71.05;99704.31;5111758;28;20063;-52
2022/09/30 06:20:33;;;;;;;9.13;7.75;;;;;;;6.51;70.09;99707.44;5112266;28;20052;-51
2022/09/30 06:23:00;;;;;;;7.28;6.43;;;;;;;6.83;68.81;99709.28;5112134;28;20062;-51
2022/09/30 06:25:28;;;;;;;7.43;6.57;;;;;;;7.23;68.36;99712.31;5108601;28;20082;-50
2022/09/30 06:27:58;;;;;;;8.05;5.60;;;;;;;7.66;66.49;99711.88;5112355;28;20477;-54
2022/09/30 06:30:25;;;;;;;6.63;5.15;;;;;;;8.19;65.44;99710.31;5093188;28;20529;-52
2022/09/30 06:32:56;;;;;;;5.72;4.78;;;;;;;8.51;64.27;99711.97;5111457;28;20055;-56
2022/09/30 06:35:23;;;;;;;5.32;4.70;;;;;;;9.01;63.10;99708.06;5111947;28;20059;-56
2022/09/30 06:37:51;;;;;;;7.60;4.45;;;;;;;9.59;62.03;99714.34;5102650;28;20405;-56
2022/09/30 06:40:20;;;;;;;9.70;5.70;;;;;;;10.18;60.45;99711.03;5119585;28;20511;-56
2022/09/30 06:42:48;;;;;;;6.70;4.22;;;;;;;10.69;59.29;99716.84;5125255;28;20047;-56
2022/09/30 06:45:17;;;;;;;7.75;4.53;;;;;;;11.43;57.63;99711.84;5115330;28;20059;-57
2022/09/30 06:47:47;;;;;;;;;;;;;;;12.09;54.60;99714.72;5121459;28;20052;-57
2022/09/30 06:50:14;;;;;;;5.63;4.03;;;;;;;12.88;53.51;99709.09;5107757;28;19920;-57
2022/09/30 06:52:41;;;;;;;6.00;4.13;;;;;;;13.60;50.78;99712.19;5118638;28;20491;-58
2022/09/30 06:55:09;;;;;;;6.55;5.53;;;;;;;14.33;49.10;99712.25;5116896;28;20055;-56
2022/09/30 06:57:36;;;;;;;7.72;5.38;;;;;;;15.04;47.62;99721.75;5111509;27;20419;-58
2022/09/30 07:00:05;;;;;;;7.03;5.85;;;;;;;15.72;45.16;99714.91;5132325;27;20055;-57
2022/09/30 07:02:33;;;;;;;7.38;4.40;;;;;;;16.34;43.72;99723.41;5116568;27;20058;-57
2022/09/30 07:05:02;;;;;;;10.63;9.03;;;;;;;16.83;42.79;99711.47;5118391;27;20075;-58
2022/09/30 07:07:33;;;;;;;12.13;10.97;;;;;;;17.25;41.81;99713.38;5119447;27;20063;-57
2022/09/30 07:10:00;;;;;;;7.75;6.30;;;;;;;17.81;40.34;99723.03;5122379;27;20491;-58
2022/09/30 07:12:28;;;;;;;5.68;4.95;;;;;;;18.39;39.30;99723.75;5108625;27;20059;-58
2022/09/30 07:14:55;;;;;;;6.38;5.07;;;;;;;18.78;38.69;99726.16;5120496;27;20522;-58
2022/09/30 07:17:23;;;;;;;5.47;4.70;;;;;;;19.21;38.60;99713.28;5120371;27;20360;-57
2022/09/30 07:19:52;;;;;;;7.18;4.15;;;;;;;19.72;37.16;99716.44;5125063;27;20066;-56
2022/09/30 07:22:30;;;;;;;4.43;3.90;;;;;;;20.15;36.99;99727.94;5113701;27;20059;-57
2022/09/30 07:24:59;;;;;;;5.32;3.80;;;;;;;20.56;36.10;99719.19;5117038;27;20062;-56
2022/09/30 07:27:27;;;;;;;4.78;4.15;;;;;;;20.96;35.02;99712.41;5119971;27;20184;-57
2022/09/30 07:29:55;;;;;;;8.18;6.45;;;;;;;21.40;34.70;99721.69;5126696;27;20060;-57
2022/09/30 07:32:23;;;;;;;6.95;5.20;;;;;;;21.86;33.67;99720.81;5112853;27;20070;-57
2022/09/30 07:34:51;;;;;;;7.10;5.13;;;;;;;22.45;32.89;99718.13;5130316;27;20058;-57
2022/09/30 07:37:20;;;;;;;5.72;5.13;;;;;;;22.89;32.23;99721.50;5117239;27;20082;-56
2022/09/30 07:39:48;;;;;;;6.55;4.90;;;;;;;23.26;31.89;99728.53;5110798;27;20051;-57
2022/09/30 07:42:19;;;;;;;6.07;4.53;;;;;;;23.80;30.72;99719.50;5093639;28;20060;-57
2022/09/30 07:44:46;;;;;;;7.38;5.25;;;;;;;24.13;30.48;99728.44;5097456;28;20498;-57
2022/09/30 07:47:14;;;;;;;6.32;5.05;;;;;;;24.55;29.19;99718.59;5096939;28;20066;-58
2022/09/30 07:49:43;;;;;;;5.25;4.75;;;;;;;24.97;29.41;99721.19;5097331;28;20054;-58
2022/09/30 07:52:12;;;;;;;5.25;4.70;;;;;;;25.41;28.32;99725.78;5111985;28;20434;-57
2022/09/30 07:54:41;;;;;;;6.30;5.20;;;;;;;26.02;27.61;99718.13;5113970;28;20055;-57
2022/09/30 07:57:08;;;;;;;8.52;4.60;;;;;;;26.33;26.91;99713.81;5114274;28;20052;-57
2022/09/30 07:59:38;;;;;;;5.57;4.97;;;;;;;26.58;26.88;99721.00;5111081;28;20059;-58
2022/09/30 08:02:07;;;;;;;7.20;4.57;;;;;;;27.05;26.13;99712.16;5097540;28;20060;-58
2022/09/30 08:04:34;;;;;;;;;;;;;;;26.78;26.16;99717.31;5093420;28;20071;-57
2022/09/30 08:07:04;;;;;;;5.57;4.88;;;;;;;27.73;25.57;99721.84;5096784;28;19951;-58
2022/09/30 08:09:33;;;;;;;6.32;4.97;;;;;;;28.42;24.71;99719.91;5092549;28;20068;-57
2022/09/30 08:12:02;;;;;;;6.75;5.03;;;;;;;28.82;24.40;99716.63;5096177;28;20062;-57
2022/09/30 08:14:29;;;;;;;;;;;;;;;27.99;24.48;99715.44;5104838;28;20059;-57
2022/09/30 08:16:59;;;;;;;5.57;5.07;;;;;;;28.71;24.13;99712.06;5095761;28;19927;-58
2022/09/30 08:19:27;;;;;;;5.78;4.80;;;;;;;29.44;23.58;99719.91;5095952;28;20460;-57
2022/09/30 08:21:55;;;;;;;6.25;5.07;;;;;;;29.88;23.33;99714.28;5106862;28;20052;-58
2022/09/30 08:24:25;;;;;;;6.03;5.28;;;;;;;30.14;23.45;99717.81;5113046;28;20056;-58
2022/09/30 08:26:55;;;;;;;7.47;4.80;;;;;;;30.77;22.53;99720.75;5107635;28;20078;-58
2022/09/30 08:29:22;;;;;;;5.55;4.40;;;;;;;30.81;22.63;99727.16;5109227;28;20415;-58
2022/09/30 08:31:50;;;;;;;5.72;4.78;;;;;;;31.22;22.25;99724.28;5093258;28;20052;-58
2022/09/30 08:34:17;;;;;;;6.28;5.10;;;;;;;31.53;22.04;99724.22;5093836;28;20056;-58
2022/09/30 08:36:45;;;;;;;7.85;5.22;;;;;;;31.79;21.83;99724.69;5099057;28;20047;-58
2022/09/30 08:39:12;;;;;;;6.27;5.10;;;;;;;31.96;21.55;99720.25;5095320;28;20060;-59
2022/09/30 08:41:51;;;;;;;5.82;5.03;;;;;;;31.36;21.73;99720.81;5092682;28;20060;-58
2022/09/30 08:44:31;;;;;;;8.23;5.28;;;;;;;31.85;21.57;99716.22;5095549;28;20052;-59
2022/09/30 08:47:08;;;;;;;6.20;5.40;;;;;;;32.00;22.24;99719.28;5095422;28;20047;-58
2022/09/30 08:49:49;;;;;;;7.32;4.88;;;;;;;32.90;21.16;99719.56;5094763;28;20387;-58
2022/09/30 08:52:21;;;;;;;6.35;5.05;;;;;;;33.40;20.95;99722.03;5099529;28;20058;-58
2022/09/30 08:54:51;;;;;;;7.10;4.65;;;;;;;33.65;20.62;99726.53;5109168;28;20060;-59
2022/09/30 08:57:19;;;;;;;6.57;4.82;;;;;;;34.05;20.34;99725.25;5109263;28;20411;-57
2022/09/30 08:59:52;;;;;;;8.00;5.60;;;;;;;34.01;20.53;99720.97;5111909;28;20062;-57
2022/09/30 09:02:26;;;;;;;5.72;5.13;;;;;;;34.16;20.39;99724.69;5096476;28;20056;-57
2022/09/30 09:04:58;;;;;;;6.20;4.78;;;;;;;34.48;20.57;99720.03;5096515;28;20516;-58
2022/09/30 09:07:40;;;;;;;6.03;4.80;;;;;;;34.34;20.36;99723.72;5097121;28;20492;-57
2022/09/30 09:10:22;;;;;;;6.22;4.40;;;;;;;34.67;20.55;99720.66;5091638;28;20056;-59
2022/09/30 09:12:57;;;;;;;5.97;4.80;;;;;;;34.88;20.17;99721.50;5093862;28;20056;-58
2022/09/30 09:15:50;;;;;;;7.35;6.00;;;;;;;35.15;20.06;99720.38;5108472;28;20059;-57
2022/09/30 09:18:39;;;;;;;5.90;4.32;;;;;;;35.33;19.88;99719.28;5107137;28;20056;-58
2022/09/30 09:21:20;;;;;;;5.10;4.32;;;;;;;35.49;19.90;99717.13;5110288;28;20484;-58
2022/09/30 09:23:49;;;;;;;5.03;4.47;;;;;;;35.76;19.23;99721.72;5100836;28;20401;-58
2022/09/30 09:26:16;;;;;;;6.57;4.90;;;;;;;36.13;19.62;99712.38;5109283;28;20066;-58
2022/09/30 09:28:53;;;;;;;5.07;3.85;;;;;;;36.48;18.70;99720.16;5104919;28;20051;-58
2022/09/30 09:31:22;;;;;;;8.13;4.72;;;;;;;36.67;18.66;99715.59;5110241;28;20055;-58
2022/09/30 09:33:49;;;;;;;5.95;4.38;;;;;;;36.45;18.71;99715.34;5108601;27;20455;-58
2022/09/30 09:36:38;;;;;;;5.47;4.43;;;;;;;36.63;18.57;99706.31;5111467;28;20056;-58
2022/09/30 09:39:27;;;;;;;6.05;4.60;;;;;;;37.11;17.97;99713.56;5104454;28;20059;-57
2022/09/30 09:42:04;;;;;;;5.28;4.30;;;;;;;37.25;17.88;99711.78;5092151;28;20063;-58
2022/09/30 09:44:39;;;;;;;6.43;4.53;;;;;;;37.57;17.70;99710.41;5091906;28;20408;-58
2022/09/30 09:47:14;;;;;;;5.82;3.90;;;;;;;37.97;17.03;99699.72;5092978;28;20066;-58
2022/09/30 09:49:43;;;;;;;4.63;4.03;;;;;;;38.18;16.72;99709.03;5092223;28;20062;-57
2022/09/30 09:52:42;;;;;;;5.40;4.30;;;;;;;38.55;15.97;99710.16;5091254;28;20405;-58
2022/09/30 09:55:10;;;;;;;6.75;4.18;;;;;;;37.93;16.49;99707.88;5093461;28;20060;-58
2022/09/30 09:57:39;;;;;;;6.63;4.28;;;;;;;37.52;16.21;99716.16;5090541;28;20063;-57
2022/09/30 10:03:03;;;;;;;5.65;3.97;;;;;;;37.41;16.98;99713.22;5099887;28;20074;-58
2022/09/30 10:05:38;;;;;;;;;;;;;;;37.46;16.03;99704.50;5095578;28;20480;-59
2022/09/30 10:08:14;;;;;;;5.38;4.07;;;;;;;37.83;16.34;99706.53;5091352;28;19927;-58
2022/09/30 10:10:46;;;;;;;5.22;4.65;;;;;;;38.82;15.72;99691.09;5110599;28;20052;-58
2022/09/30 10:13:19;;;;;;;4.93;3.35;;;;;;;39.28;14.86;99700.56;5104206;28;20051;-58
2022/09/30 10:15:47;;;;;;;5.72;3.10;;;;;;;38.36;14.93;99699.00;5102340;28;20492;-58
2022/09/30 10:18:19;;;;;;;;;;;;;;;38.17;15.38;99704.53;5095857;28;20079;-58
2022/09/30 10:23:27;;;;;;;3.33;2.50;;;;;;;38.11;15.44;99700.81;4992259;28;20054;-89
2022/09/30 10:25:56;;;;;;;3.90;3.10;;;;;;;38.21;15.59;99698.47;4984865;28;20050;-88
2022/09/30 10:28:26;;;;;;;3.38;2.70;;;;;;;38.29;15.10;99701.66;4987574;28;20055;-88
2022/09/30 10:30:58;;;;;;;4.35;3.17;;;;;;;37.47;15.72;99700.28;4982864;28;20050;-89
2022/09/30 10:33:30;;;;;;;5.03;3.03;;;;;;;38.00;15.86;99697.06;4996426;28;20061;-90
2022/09/30 10:36:07;;;;;;;3.90;2.88;;;;;;;37.13;15.58;99702.22;4995160;28;20058;-90
2022/09/30 10:38:37;;;;;;;3.38;2.70;;;;;;;35.37;16.76;99710.41;4993474;28;20055;-89
2022/09/30 10:41:05;;;;;;;5.18;3.30;;;;;;;32.12;19.37;99722.00;4987975;28;20074;-91
2022/09/30 10:43:42;;;;;;;4.13;3.08;;;;;;;31.13;20.40;99702.84;4995255;28;20050;-90
2022/09/30 10:46:10;;;;;;;5.60;4.20;;;;;;;30.11;21.46;99710.16;4995697;28;20061;-87
2022/09/30 10:48:41;;;;;;;6.43;3.97;;;;;;;29.39;21.95;99717.63;4992194;28;20058;-87
2022/09/30 10:51:23;;;;;;;5.13;3.60;;;;;;;28.32;23.54;99725.50;4981549;28;20055;-86
2022/09/30 10:53:51;;;;;;;3.70;2.95;;;;;;;28.21;23.57;99709.91;4985873;28;20055;-89
2022/09/30 10:56:37;;;;;;;5.68;3.28;;;;;;;28.16;24.19;99714.13;4992775;28;20065;-88
2022/09/30 10:59:15;;;;;;;5.68;3.50;;;;;;;28.10;24.06;99713.09;4995756;28;20069;-86
2022/09/30 11:01:48;;;;;;;3.40;2.92;;;;;;;28.91;23.23;99705.28;4985754;28;20058;-86
2022/09/30 11:04:25;;;;;;;3.17;2.75;;;;;;;29.35;22.96;99699.72;4993811;28;20443;-87
2022/09/30 11:06:58;;;;;;;4.50;2.88;;;;;;;30.52;21.67;99707.38;4996914;28;20054;-89
2022/09/30 11:09:34;;;;;;;5.35;3.13;;;;;;;31.29;21.10;99707.53;5004877;28;20058;-90
2022/09/30 11:12:10;;;;;;;4.65;3.38;;;;;;;32.25;19.37;99709.50;4998617;28;20054;-91
2022/09/30 11:14:44;;;;;;;5.68;2.83;;;;;;;32.53;19.04;99707.34;4988999;28;20058;-83
2022/09/30 11:17:26;;;;;;;4.65;2.92;;;;;;;32.60;19.99;99712.78;4984502;28;20074;-83
2022/09/30 11:20:07;;;;;;;4.18;2.70;;;;;;;33.49;18.72;99703.84;4993640;28;20050;-83
2022/09/30 11:22:45;;;;;;;4.22;2.42;;;;;;;33.34;18.17;99701.69;4994240;28;20050;-84
2022/09/30 11:25:14;;;;;;;3.37;2.63;;;;;;;34.00;18.36;99719.34;4992931;28;20066;-84
2022/09/30 11:27:55;;;;;;;3.95;2.70;;;;;;;34.23;17.93;99714.81;4995701;28;20061;-84
2022/09/30 11:30:29;;;;;;;2.92;2.47;;;;;;;32.78;18.50;99717.72;4995442;28;20510;-83
2022/09/30 11:33:13;;;;;;;3.90;3.25;;;;;;;32.24;18.82;99722.31;4994213;28;20502;-83
2022/09/30 11:35:51;;;;;;;2.58;2.00;;;;;;;31.36;20.02;99727.34;5000135;28;20061;-84
2022/09/30 11:38:54;;;;;;;2.67;2.30;;;;;;;30.48;20.72;99721.09;4994636;28;20062;-89
2022/09/30 11:41:27;;;;;;;3.40;2.47;;;;;;;29.52;21.24;99724.16;4989826;28;20054;-88
2022/09/30 11:44:08;;;;;;;3.55;2.30;;;;;;;29.26;22.04;99714.78;4996826;28;20050;-87
2022/09/30 11:46:54;;;;;;;3.03;1.95;;;;;;;28.49;22.33;99722.56;5000163;28;20483;-89
2022/09/30 11:49:49;;;;;;;4.70;2.63;;;;;;;28.91;22.27;99723.28;4998988;28;20503;-87
2022/09/30 11:52:27;;;;;;;2.85;2.22;;;;;;;30.07;22.64;99717.25;4994493;28;20054;-84
2022/09/30 11:55:15;;;;;;;3.80;2.40;;;;;;;30.67;20.28;99722.78;4993888;28;20054;-85
2022/09/30 11:57:49;;;;;;;3.88;2.10;;;;;;;31.07;19.96;99726.97;4986458;28;20062;-85
2022/09/30 12:00:19;;;;;;;3.10;2.13;;;;;;;30.68;20.52;99720.69;4995467;28;20054;-84
2022/09/30 12:02:50;;;;;;;4.28;2.65;;;;;;;30.81;21.90;99720.63;4991685;28;20054;-91
2022/09/30 12:05:23;;;;;;;3.88;2.38;;;;;;;31.68;20.28;99728.06;5000384;28;20058;-91
2022/09/30 12:07:55;;;;;;;3.25;2.42;;;;;;;32.23;20.27;99727.25;4998514;28;20491;-89